RYR95LQ LBSF-EPMO
Flight info
| Callsign | RYR95LQ |
|---|---|
| Flight time | 1h 39m |
| Altitude | 38000 |
| Route | OGOTA N133 ERDOM DCT BADOR DCT KENIN/N0444F390 DCT MONOV/N0443F380 L621 LIMVI |
| Aircraft | B38M/M-SADE3FGILRWY/SB1 |
Departure
| Time | 2026-04-25 09:23 |
|---|---|
| Airport | Sofia Airport (LBSF) |
Arrival
| Time | 2026-04-25 11:02 |
|---|---|
| Airport | Warsaw Modlin Airport (EPMO) |
| Time | Latitude | Longitude | Altitude | Speed | Heading |
|---|---|---|---|---|---|
| 2026-04-25 08:53 | 42.68974 | 23.40864 | 1753 ft | 0 kts | 162° |
| 2026-04-25 09:15 | 42.68966 | 23.40868 | 1750 ft | 2 kts | 162° |
| 2026-04-25 09:15 | 42.68942 | 23.40878 | 1752 ft | 5 kts | 162° |
| 2026-04-25 09:15 | 42.68921 | 23.40914 | 1755 ft | 6 kts | 97° |
| 2026-04-25 09:15 | 42.68929 | 23.40974 | 1755 ft | 8 kts | 73° |
| 2026-04-25 09:16 | 42.68947 | 23.41051 | 1748 ft | 9 kts | 72° |
| 2026-04-25 09:16 | 42.68969 | 23.41145 | 1750 ft | 11 kts | 72° |
| 2026-04-25 09:16 | 42.69007 | 23.41220 | 1751 ft | 9 kts | 41° |
| 2026-04-25 09:16 | 42.69068 | 23.41222 | 1750 ft | 10 kts | 342° |
| 2026-04-25 09:17 | 42.69228 | 23.41155 | 1750 ft | 13 kts | 358° |
| 2026-04-25 09:17 | 42.69325 | 23.41180 | 1752 ft | 15 kts | 11° |
| 2026-04-25 09:17 | 42.69433 | 23.41210 | 1753 ft | 16 kts | 11° |
| 2026-04-25 09:18 | 42.69486 | 23.41304 | 1752 ft | 15 kts | 95° |
| 2026-04-25 09:18 | 42.69474 | 23.41452 | 1755 ft | 17 kts | 94° |
| 2026-04-25 09:18 | 42.69466 | 23.41616 | 1755 ft | 18 kts | 94° |
| 2026-04-25 09:18 | 42.69454 | 23.41796 | 1755 ft | 20 kts | 95° |
| 2026-04-25 09:19 | 42.69444 | 23.41984 | 1752 ft | 20 kts | 94° |
| 2026-04-25 09:19 | 42.69433 | 23.42176 | 1751 ft | 21 kts | 94° |
| 2026-04-25 09:19 | 42.69421 | 23.42385 | 1746 ft | 23 kts | 95° |
| 2026-04-25 09:19 | 42.69408 | 23.42607 | 1755 ft | 24 kts | 95° |
| 2026-04-25 09:20 | 42.69394 | 23.42845 | 1748 ft | 26 kts | 94° |
| 2026-04-25 09:20 | 42.69379 | 23.43096 | 1747 ft | 27 kts | 94° |
| 2026-04-25 09:20 | 42.69362 | 23.43361 | 1755 ft | 29 kts | 95° |
| 2026-04-25 09:20 | 42.69348 | 23.43603 | 1752 ft | 18 kts | 94° |
| 2026-04-25 09:21 | 42.69339 | 23.43756 | 1772 ft | 17 kts | 95° |
| 2026-04-25 09:21 | 42.69341 | 23.43920 | 1781 ft | 16 kts | 59° |
| 2026-04-25 09:21 | 42.69443 | 23.43955 | 1779 ft | 16 kts | 5° |
| 2026-04-25 09:21 | 42.69522 | 23.43889 | 1782 ft | 6 kts | 275° |
| 2026-04-25 09:22 | 42.69522 | 23.43879 | 1783 ft | 2 kts | 275° |
| 2026-04-25 09:22 | 42.69529 | 23.43773 | 1786 ft | 34 kts | 275° |
| 2026-04-25 09:22 | 42.69569 | 23.43095 | 1757 ft | 107 kts | 275° |
| 2026-04-25 09:22 | 42.69645 | 23.41820 | 1816 ft | 158 kts | 276° |
| 2026-04-25 09:23 | 42.69736 | 23.40234 | 2376 ft | 177 kts | 274° |
| 2026-04-25 09:23 | 42.69843 | 23.38535 | 3142 ft | 180 kts | 279° |
| 2026-04-25 09:23 | 42.70252 | 23.36991 | 4040 ft | 181 kts | 305° |
| 2026-04-25 09:23 | 42.71249 | 23.35809 | 4543 ft | 203 kts | 332° |
| 2026-04-25 09:24 | 42.72688 | 23.35279 | 5019 ft | 227 kts | 348° |
| 2026-04-25 09:24 | 42.73770 | 23.35056 | 5311 ft | 247 kts | 349° |
| 2026-04-25 09:24 | 42.75476 | 23.34718 | 6324 ft | 250 kts | 350° |
| 2026-04-25 09:24 | 42.77250 | 23.34382 | 7035 ft | 266 kts | 350° |
| 2026-04-25 09:25 | 42.79123 | 23.34039 | 7898 ft | 272 kts | 350° |
| 2026-04-25 09:25 | 42.80990 | 23.33701 | 8845 ft | 277 kts | 350° |
| 2026-04-25 09:25 | 42.82929 | 23.33354 | 9738 ft | 283 kts | 350° |
| 2026-04-25 09:25 | 42.84910 | 23.33010 | 10516 ft | 294 kts | 353° |
| 2026-04-25 09:26 | 42.87032 | 23.32957 | 10984 ft | 313 kts | 358° |
| 2026-04-25 09:26 | 42.89250 | 23.32963 | 11663 ft | 321 kts | 358° |
| 2026-04-25 09:26 | 42.91467 | 23.32955 | 12546 ft | 324 kts | 358° |
| 2026-04-25 09:26 | 42.93738 | 23.32939 | 13411 ft | 329 kts | 357° |
| 2026-04-25 09:27 | 42.96042 | 23.32918 | 14227 ft | 333 kts | 358° |
| 2026-04-25 09:27 | 42.98377 | 23.32895 | 14979 ft | 337 kts | 358° |
| 2026-04-25 09:27 | 43.00735 | 23.32873 | 15791 ft | 340 kts | 358° |
| 2026-04-25 09:27 | 43.03106 | 23.32849 | 16599 ft | 342 kts | 358° |
| 2026-04-25 09:28 | 43.05501 | 23.32826 | 17376 ft | 345 kts | 359° |
| 2026-04-25 09:28 | 43.07927 | 23.32802 | 18083 ft | 349 kts | 359° |
| 2026-04-25 09:28 | 43.10371 | 23.32777 | 18765 ft | 352 kts | 359° |
| 2026-04-25 09:28 | 43.12806 | 23.32753 | 19355 ft | 356 kts | 359° |
| 2026-04-25 09:29 | 43.15297 | 23.32728 | 20024 ft | 357 kts | 359° |
| 2026-04-25 09:29 | 43.17799 | 23.32703 | 20627 ft | 361 kts | 359° |
| 2026-04-25 09:29 | 43.20340 | 23.32677 | 21205 ft | 365 kts | 359° |
| 2026-04-25 09:29 | 43.22850 | 23.32453 | 21836 ft | 367 kts | 354° |
| 2026-04-25 09:30 | 43.25410 | 23.32137 | 22406 ft | 370 kts | 354° |
| 2026-04-25 09:30 | 43.28000 | 23.31835 | 22978 ft | 374 kts | 354° |
| 2026-04-25 09:30 | 43.30606 | 23.31540 | 23522 ft | 378 kts | 355° |
| 2026-04-25 09:30 | 43.33234 | 23.31232 | 24058 ft | 379 kts | 354° |
| 2026-04-25 09:31 | 43.35841 | 23.30903 | 24551 ft | 382 kts | 354° |
| 2026-04-25 09:31 | 43.38500 | 23.30571 | 24990 ft | 385 kts | 354° |
| 2026-04-25 09:31 | 43.41177 | 23.30237 | 25454 ft | 387 kts | 354° |
| 2026-04-25 09:31 | 43.43872 | 23.29901 | 25921 ft | 389 kts | 354° |
| 2026-04-25 09:32 | 43.46583 | 23.29563 | 26379 ft | 392 kts | 354° |
| 2026-04-25 09:32 | 43.49307 | 23.29223 | 26819 ft | 394 kts | 354° |
| 2026-04-25 09:32 | 43.52050 | 23.28804 | 27261 ft | 396 kts | 349° |
| 2026-04-25 09:32 | 43.54749 | 23.27990 | 27708 ft | 398 kts | 348° |
| 2026-04-25 09:33 | 43.57468 | 23.27214 | 28147 ft | 400 kts | 348° |
| 2026-04-25 09:33 | 43.60170 | 23.26462 | 28564 ft | 402 kts | 348° |
| 2026-04-25 09:33 | 43.62927 | 23.25707 | 28986 ft | 404 kts | 349° |
| 2026-04-25 09:33 | 43.65697 | 23.24953 | 29402 ft | 406 kts | 349° |
| 2026-04-25 09:34 | 43.68484 | 23.24195 | 29789 ft | 408 kts | 349° |
| 2026-04-25 09:34 | 43.71287 | 23.23432 | 30162 ft | 411 kts | 349° |
| 2026-04-25 09:34 | 43.74077 | 23.22673 | 30494 ft | 413 kts | 349° |
| 2026-04-25 09:34 | 43.76917 | 23.21898 | 30840 ft | 414 kts | 349° |
| 2026-04-25 09:35 | 43.79756 | 23.21124 | 31197 ft | 416 kts | 349° |
| 2026-04-25 09:35 | 43.82602 | 23.20347 | 31521 ft | 417 kts | 349° |
| 2026-04-25 09:35 | 43.85426 | 23.19575 | 31849 ft | 419 kts | 349° |
| 2026-04-25 09:35 | 43.88301 | 23.18789 | 32178 ft | 420 kts | 349° |
| 2026-04-25 09:36 | 43.91176 | 23.18002 | 32491 ft | 422 kts | 349° |
| 2026-04-25 09:36 | 43.94079 | 23.17206 | 32809 ft | 424 kts | 349° |
| 2026-04-25 09:36 | 43.96939 | 23.16421 | 33158 ft | 424 kts | 348° |
| 2026-04-25 09:36 | 43.99827 | 23.15628 | 33631 ft | 422 kts | 348° |
| 2026-04-25 09:37 | 44.02715 | 23.14834 | 34083 ft | 420 kts | 348° |
| 2026-04-25 09:37 | 44.05590 | 23.14043 | 34434 ft | 419 kts | 348° |
| 2026-04-25 09:37 | 44.08412 | 23.13266 | 34764 ft | 418 kts | 348° |
| 2026-04-25 09:37 | 44.11269 | 23.12478 | 35105 ft | 417 kts | 348° |
| 2026-04-25 09:38 | 44.14116 | 23.11692 | 35450 ft | 416 kts | 348° |
| 2026-04-25 09:38 | 44.16956 | 23.10908 | 35777 ft | 415 kts | 348° |
| 2026-04-25 09:38 | 44.19793 | 23.10123 | 36123 ft | 414 kts | 348° |
| 2026-04-25 09:38 | 44.22613 | 23.09343 | 36448 ft | 413 kts | 348° |
| 2026-04-25 09:39 | 44.25400 | 23.08570 | 36733 ft | 412 kts | 348° |
| 2026-04-25 09:39 | 44.28216 | 23.07790 | 37026 ft | 412 kts | 348° |
| 2026-04-25 09:39 | 44.31031 | 23.07008 | 37303 ft | 411 kts | 348° |
| 2026-04-25 09:40 | 44.36650 | 23.05446 | 37849 ft | 410 kts | 348° |
| 2026-04-25 09:40 | 44.39412 | 23.04677 | 38053 ft | 410 kts | 348° |
| 2026-04-25 09:40 | 44.45009 | 23.03116 | 38065 ft | 408 kts | 348° |
| 2026-04-25 09:41 | 44.50574 | 23.01561 | 38068 ft | 408 kts | 348° |
| 2026-04-25 09:41 | 44.56108 | 23.00012 | 38072 ft | 408 kts | 348° |
| 2026-04-25 09:42 | 44.61686 | 22.98447 | 38077 ft | 407 kts | 348° |
| 2026-04-25 09:42 | 44.67236 | 22.96888 | 38061 ft | 406 kts | 348° |
| 2026-04-25 09:43 | 44.72756 | 22.95333 | 38055 ft | 406 kts | 348° |
| 2026-04-25 09:43 | 44.78317 | 22.93765 | 38046 ft | 406 kts | 348° |
| 2026-04-25 09:44 | 44.83861 | 22.92198 | 38060 ft | 406 kts | 347° |
| 2026-04-25 09:44 | 44.89354 | 22.90642 | 38062 ft | 405 kts | 347° |
| 2026-04-25 09:45 | 44.94895 | 22.89070 | 38059 ft | 405 kts | 347° |
| 2026-04-25 09:45 | 45.00434 | 22.87495 | 38057 ft | 405 kts | 347° |
| 2026-04-25 09:46 | 45.05934 | 22.85928 | 38071 ft | 405 kts | 347° |
| 2026-04-25 09:46 | 45.11459 | 22.84351 | 38046 ft | 405 kts | 347° |
| 2026-04-25 09:47 | 45.16981 | 22.82770 | 38047 ft | 404 kts | 347° |
| 2026-04-25 09:47 | 45.22503 | 22.81189 | 38043 ft | 404 kts | 347° |
| 2026-04-25 09:48 | 45.27992 | 22.79613 | 38064 ft | 405 kts | 347° |
| 2026-04-25 09:48 | 45.33539 | 22.78016 | 38034 ft | 405 kts | 347° |
| 2026-04-25 09:49 | 45.39030 | 22.76434 | 38045 ft | 405 kts | 347° |
| 2026-04-25 09:49 | 45.44538 | 22.74842 | 38042 ft | 403 kts | 347° |
| 2026-04-25 09:50 | 45.50057 | 22.73244 | 38051 ft | 405 kts | 346° |
| 2026-04-25 09:50 | 45.55596 | 22.71639 | 38039 ft | 406 kts | 346° |
| 2026-04-25 09:51 | 45.61103 | 22.70039 | 38026 ft | 406 kts | 346° |
| 2026-04-25 09:51 | 45.66657 | 22.68421 | 38036 ft | 407 kts | 346° |
| 2026-04-25 09:52 | 45.72220 | 22.66798 | 38069 ft | 406 kts | 346° |
| 2026-04-25 09:52 | 45.77720 | 22.65189 | 38034 ft | 405 kts | 346° |
| 2026-04-25 09:53 | 45.83259 | 22.63567 | 38026 ft | 406 kts | 346° |
| 2026-04-25 09:53 | 45.88805 | 22.61938 | 38030 ft | 406 kts | 346° |
| 2026-04-25 09:54 | 45.94299 | 22.60323 | 38056 ft | 405 kts | 346° |
| 2026-04-25 09:54 | 45.99826 | 22.58693 | 38026 ft | 403 kts | 346° |
| 2026-04-25 09:55 | 46.05298 | 22.57077 | 38031 ft | 404 kts | 346° |
| 2026-04-25 09:55 | 46.10814 | 22.55445 | 38018 ft | 403 kts | 346° |
| 2026-04-25 09:56 | 46.16329 | 22.53809 | 38021 ft | 404 kts | 346° |
| 2026-04-25 09:56 | 46.21801 | 22.52183 | 38016 ft | 403 kts | 345° |
| 2026-04-25 09:57 | 46.27283 | 22.50552 | 38030 ft | 402 kts | 345° |
| 2026-04-25 09:57 | 46.32756 | 22.48918 | 38021 ft | 402 kts | 345° |
| 2026-04-25 09:58 | 46.38265 | 22.47270 | 38012 ft | 402 kts | 345° |
| 2026-04-25 09:58 | 46.43708 | 22.45639 | 38022 ft | 402 kts | 345° |
| 2026-04-25 09:59 | 46.49195 | 22.43992 | 38024 ft | 402 kts | 345° |
| 2026-04-25 09:59 | 46.54681 | 22.42342 | 38014 ft | 402 kts | 345° |
| 2026-04-25 10:00 | 46.60166 | 22.40688 | 38016 ft | 402 kts | 345° |
| 2026-04-25 10:00 | 46.65630 | 22.39037 | 38010 ft | 403 kts | 345° |
| 2026-04-25 10:01 | 46.71138 | 22.37370 | 38007 ft | 403 kts | 345° |
| 2026-04-25 10:01 | 46.76613 | 22.35710 | 38004 ft | 403 kts | 345° |
| 2026-04-25 10:02 | 46.82120 | 22.34036 | 38006 ft | 403 kts | 345° |
| 2026-04-25 10:02 | 46.87593 | 22.32368 | 38016 ft | 404 kts | 344° |
| 2026-04-25 10:03 | 46.93112 | 22.30683 | 38008 ft | 403 kts | 344° |
| 2026-04-25 10:03 | 46.98591 | 22.29008 | 37997 ft | 404 kts | 344° |
| 2026-04-25 10:04 | 47.04110 | 22.27315 | 37982 ft | 404 kts | 344° |
| 2026-04-25 10:04 | 47.09579 | 22.25636 | 37995 ft | 404 kts | 344° |
| 2026-04-25 10:05 | 47.15103 | 22.23935 | 37989 ft | 404 kts | 344° |
| 2026-04-25 10:05 | 47.20585 | 22.22245 | 37990 ft | 404 kts | 344° |
| 2026-04-25 10:06 | 47.26103 | 22.20540 | 37981 ft | 404 kts | 344° |
| 2026-04-25 10:06 | 47.31579 | 22.18844 | 37985 ft | 404 kts | 344° |
| 2026-04-25 10:07 | 47.37110 | 22.17128 | 37989 ft | 405 kts | 343° |
| 2026-04-25 10:07 | 47.42596 | 22.15422 | 37983 ft | 405 kts | 343° |
| 2026-04-25 10:08 | 47.48127 | 22.13698 | 37979 ft | 405 kts | 343° |
| 2026-04-25 10:08 | 47.53627 | 22.11981 | 37977 ft | 405 kts | 343° |
| 2026-04-25 10:09 | 47.59198 | 22.10478 | 38006 ft | 407 kts | 347° |
| 2026-04-25 10:09 | 47.64787 | 22.09237 | 37973 ft | 408 kts | 346° |
| 2026-04-25 10:10 | 47.70406 | 22.07957 | 37981 ft | 408 kts | 346° |
| 2026-04-25 10:10 | 47.76026 | 22.06671 | 37984 ft | 408 kts | 346° |
| 2026-04-25 10:11 | 47.81612 | 22.05388 | 37998 ft | 408 kts | 346° |
| 2026-04-25 10:11 | 47.86286 | 22.04313 | 37972 ft | 408 kts | 346° |
| 2026-04-25 10:12 | 47.92817 | 22.02809 | 37967 ft | 408 kts | 346° |
| 2026-04-25 10:13 | 48.00289 | 22.01082 | 37968 ft | 408 kts | 346° |
| 2026-04-25 10:13 | 48.05919 | 21.99777 | 37997 ft | 408 kts | 346° |
| 2026-04-25 10:14 | 48.11501 | 21.98481 | 37970 ft | 406 kts | 346° |
| 2026-04-25 10:14 | 48.17107 | 21.97177 | 37970 ft | 407 kts | 346° |
| 2026-04-25 10:15 | 48.22679 | 21.95877 | 37969 ft | 407 kts | 346° |
| 2026-04-25 10:15 | 48.28291 | 21.94565 | 37966 ft | 407 kts | 346° |
| 2026-04-25 10:16 | 48.33849 | 21.93264 | 37967 ft | 405 kts | 346° |
| 2026-04-25 10:16 | 48.39507 | 21.92682 | 37978 ft | 410 kts | 352° |
| 2026-04-25 10:17 | 48.45216 | 21.92353 | 37973 ft | 410 kts | 352° |
| 2026-04-25 10:17 | 48.50884 | 21.91978 | 37977 ft | 409 kts | 352° |
| 2026-04-25 10:18 | 48.56591 | 21.91592 | 37973 ft | 409 kts | 352° |
| 2026-04-25 10:18 | 48.62248 | 21.91208 | 37972 ft | 409 kts | 352° |
| 2026-04-25 10:19 | 48.67946 | 21.90820 | 37979 ft | 409 kts | 352° |
| 2026-04-25 10:19 | 48.73601 | 21.90435 | 37971 ft | 409 kts | 352° |
| 2026-04-25 10:20 | 48.79299 | 21.90045 | 37985 ft | 409 kts | 351° |
| 2026-04-25 10:20 | 48.84984 | 21.89655 | 37974 ft | 408 kts | 351° |
| 2026-04-25 10:21 | 48.90639 | 21.89267 | 37968 ft | 408 kts | 351° |
| 2026-04-25 10:21 | 48.96298 | 21.88877 | 37967 ft | 408 kts | 351° |
| 2026-04-25 10:22 | 49.01994 | 21.88485 | 37972 ft | 408 kts | 351° |
| 2026-04-25 10:22 | 49.07648 | 21.88093 | 37971 ft | 408 kts | 351° |
| 2026-04-25 10:23 | 49.13335 | 21.87699 | 37962 ft | 408 kts | 351° |
| 2026-04-25 10:23 | 49.19023 | 21.87305 | 37956 ft | 408 kts | 351° |
| 2026-04-25 10:24 | 49.24677 | 21.86910 | 37998 ft | 409 kts | 351° |
| 2026-04-25 10:24 | 49.30366 | 21.86513 | 37964 ft | 408 kts | 351° |
| 2026-04-25 10:25 | 49.36011 | 21.86118 | 37963 ft | 409 kts | 351° |
| 2026-04-25 10:25 | 49.41714 | 21.85719 | 37969 ft | 409 kts | 351° |
| 2026-04-25 10:26 | 49.47367 | 21.85321 | 37958 ft | 409 kts | 351° |
| 2026-04-25 10:26 | 49.53066 | 21.84921 | 37970 ft | 409 kts | 351° |
| 2026-04-25 10:27 | 49.58734 | 21.84520 | 37967 ft | 409 kts | 351° |
| 2026-04-25 10:27 | 49.64425 | 21.84117 | 37964 ft | 409 kts | 351° |
| 2026-04-25 10:28 | 49.70138 | 21.83712 | 37962 ft | 409 kts | 351° |
| 2026-04-25 10:28 | 49.75813 | 21.83308 | 37971 ft | 410 kts | 351° |
| 2026-04-25 10:29 | 49.81518 | 21.82902 | 37968 ft | 410 kts | 351° |
| 2026-04-25 10:29 | 49.87228 | 21.82494 | 37964 ft | 410 kts | 351° |
| 2026-04-25 10:30 | 49.92920 | 21.82087 | 37946 ft | 411 kts | 351° |
| 2026-04-25 10:30 | 49.98652 | 21.81675 | 37970 ft | 410 kts | 351° |
| 2026-04-25 10:31 | 50.04311 | 21.81268 | 37947 ft | 409 kts | 351° |
| 2026-04-25 10:31 | 50.10017 | 21.80857 | 37939 ft | 410 kts | 351° |
| 2026-04-25 10:32 | 50.15698 | 21.80446 | 37943 ft | 410 kts | 351° |
| 2026-04-25 10:32 | 50.21401 | 21.80033 | 37980 ft | 410 kts | 351° |
| 2026-04-25 10:33 | 50.27093 | 21.79619 | 37935 ft | 409 kts | 351° |
| 2026-04-25 10:33 | 50.32803 | 21.79204 | 37941 ft | 410 kts | 351° |
| 2026-04-25 10:34 | 50.38484 | 21.78789 | 37937 ft | 410 kts | 351° |
| 2026-04-25 10:34 | 50.44189 | 21.78371 | 37922 ft | 410 kts | 351° |
| 2026-04-25 10:35 | 50.49912 | 21.77952 | 37939 ft | 412 kts | 351° |
| 2026-04-25 10:35 | 50.55614 | 21.77533 | 37932 ft | 412 kts | 351° |
| 2026-04-25 10:36 | 50.61359 | 21.77110 | 37921 ft | 411 kts | 351° |
| 2026-04-25 10:36 | 50.66999 | 21.76693 | 37922 ft | 405 kts | 351° |
| 2026-04-25 10:37 | 50.72647 | 21.76274 | 37935 ft | 407 kts | 351° |
| 2026-04-25 10:37 | 50.78338 | 21.75852 | 37922 ft | 409 kts | 352° |
| 2026-04-25 10:38 | 50.84000 | 21.75431 | 37911 ft | 409 kts | 352° |
| 2026-04-25 10:38 | 50.86832 | 21.75220 | 37075 ft | 407 kts | 351° |
| 2026-04-25 10:38 | 50.89677 | 21.75007 | 36191 ft | 408 kts | 351° |
| 2026-04-25 10:38 | 50.92496 | 21.74797 | 35777 ft | 402 kts | 351° |
| 2026-04-25 10:39 | 50.95268 | 21.74589 | 35424 ft | 396 kts | 351° |
| 2026-04-25 10:39 | 50.98015 | 21.74382 | 35102 ft | 407 kts | 352° |
| 2026-04-25 10:39 | 51.00897 | 21.74167 | 34601 ft | 415 kts | 352° |
| 2026-04-25 10:39 | 51.03789 | 21.73950 | 33901 ft | 417 kts | 353° |
| 2026-04-25 10:40 | 51.06712 | 21.73731 | 32973 ft | 421 kts | 353° |
| 2026-04-25 10:40 | 51.09604 | 21.73513 | 32167 ft | 423 kts | 353° |
| 2026-04-25 10:40 | 51.12549 | 21.73291 | 31437 ft | 423 kts | 353° |
| 2026-04-25 10:40 | 51.14531 | 21.73142 | 30991 ft | 422 kts | 353° |
| 2026-04-25 10:41 | 51.18400 | 21.72849 | 30256 ft | 417 kts | 353° |
| 2026-04-25 10:41 | 51.21290 | 21.72631 | 29679 ft | 414 kts | 353° |
| 2026-04-25 10:41 | 51.24163 | 21.72413 | 29042 ft | 411 kts | 353° |
| 2026-04-25 10:41 | 51.27009 | 21.72197 | 28473 ft | 407 kts | 353° |
| 2026-04-25 10:42 | 51.29820 | 21.71983 | 27926 ft | 402 kts | 353° |
| 2026-04-25 10:42 | 51.32565 | 21.71775 | 27395 ft | 399 kts | 353° |
| 2026-04-25 10:42 | 51.35324 | 21.71565 | 26860 ft | 395 kts | 353° |
| 2026-04-25 10:42 | 51.38058 | 21.71343 | 26304 ft | 391 kts | 351° |
| 2026-04-25 10:43 | 51.40727 | 21.70537 | 25393 ft | 390 kts | 336° |
| 2026-04-25 10:43 | 51.43188 | 21.68648 | 24495 ft | 389 kts | 332° |
| 2026-04-25 10:43 | 51.45620 | 21.66913 | 23683 ft | 383 kts | 333° |
| 2026-04-25 10:43 | 51.48053 | 21.65235 | 22781 ft | 377 kts | 333° |
| 2026-04-25 10:44 | 51.50451 | 21.63603 | 21889 ft | 371 kts | 333° |
| 2026-04-25 10:44 | 51.52816 | 21.62007 | 21035 ft | 365 kts | 333° |
| 2026-04-25 10:44 | 51.55145 | 21.60441 | 20223 ft | 359 kts | 333° |
| 2026-04-25 10:44 | 51.57429 | 21.58907 | 19458 ft | 353 kts | 333° |
| 2026-04-25 10:45 | 51.59647 | 21.57417 | 18732 ft | 347 kts | 333° |
| 2026-04-25 10:45 | 51.61868 | 21.55924 | 18012 ft | 342 kts | 333° |
| 2026-04-25 10:45 | 51.64046 | 21.54459 | 17238 ft | 336 kts | 333° |
| 2026-04-25 10:45 | 51.66190 | 21.53015 | 16491 ft | 331 kts | 333° |
| 2026-04-25 10:46 | 51.68295 | 21.51596 | 15783 ft | 325 kts | 333° |
| 2026-04-25 10:46 | 51.70362 | 21.50200 | 15210 ft | 319 kts | 333° |
| 2026-04-25 10:46 | 51.72410 | 21.48817 | 14725 ft | 319 kts | 333° |
| 2026-04-25 10:46 | 51.74429 | 21.47452 | 14319 ft | 317 kts | 333° |
| 2026-04-25 10:47 | 51.76459 | 21.46078 | 13954 ft | 314 kts | 333° |
| 2026-04-25 10:47 | 51.78473 | 21.44714 | 13550 ft | 312 kts | 333° |
| 2026-04-25 10:47 | 51.80476 | 21.43356 | 13120 ft | 309 kts | 333° |
| 2026-04-25 10:47 | 51.82455 | 21.42013 | 12736 ft | 306 kts | 333° |
| 2026-04-25 10:48 | 51.84408 | 21.40686 | 12373 ft | 304 kts | 333° |
| 2026-04-25 10:48 | 51.86348 | 21.39367 | 12011 ft | 309 kts | 333° |
| 2026-04-25 10:48 | 51.88351 | 21.38006 | 11623 ft | 313 kts | 333° |
| 2026-04-25 10:48 | 51.90355 | 21.36641 | 11245 ft | 312 kts | 333° |
| 2026-04-25 10:49 | 51.92354 | 21.35279 | 10944 ft | 309 kts | 333° |
| 2026-04-25 10:49 | 51.93651 | 21.34392 | 10838 ft | 302 kts | 333° |
| 2026-04-25 10:49 | 51.96187 | 21.32659 | 10644 ft | 289 kts | 333° |
| 2026-04-25 10:49 | 51.98015 | 21.31407 | 10499 ft | 279 kts | 333° |
| 2026-04-25 10:50 | 51.99755 | 21.30215 | 10352 ft | 270 kts | 333° |
| 2026-04-25 10:50 | 52.01464 | 21.29044 | 10235 ft | 261 kts | 333° |
| 2026-04-25 10:50 | 52.03109 | 21.27916 | 10102 ft | 253 kts | 333° |
| 2026-04-25 10:50 | 52.04709 | 21.26818 | 9969 ft | 244 kts | 333° |
| 2026-04-25 10:51 | 52.06249 | 21.25759 | 9845 ft | 238 kts | 332° |
| 2026-04-25 10:51 | 52.07792 | 21.24699 | 9584 ft | 244 kts | 333° |
| 2026-04-25 10:51 | 52.09355 | 21.23625 | 9278 ft | 249 kts | 333° |
| 2026-04-25 10:51 | 52.10957 | 21.22523 | 8972 ft | 250 kts | 333° |
| 2026-04-25 10:52 | 52.12559 | 21.21420 | 8691 ft | 250 kts | 332° |
| 2026-04-25 10:52 | 52.14160 | 21.20317 | 8441 ft | 250 kts | 332° |
| 2026-04-25 10:52 | 52.15770 | 21.19207 | 8172 ft | 249 kts | 332° |
| 2026-04-25 10:52 | 52.17370 | 21.18103 | 7890 ft | 249 kts | 332° |
| 2026-04-25 10:53 | 52.18965 | 21.17002 | 7616 ft | 248 kts | 332° |
| 2026-04-25 10:53 | 52.20534 | 21.15918 | 7354 ft | 247 kts | 332° |
| 2026-04-25 10:53 | 52.22108 | 21.14829 | 7089 ft | 244 kts | 332° |
| 2026-04-25 10:53 | 52.23669 | 21.13747 | 6816 ft | 241 kts | 332° |
| 2026-04-25 10:54 | 52.25214 | 21.12677 | 6554 ft | 239 kts | 332° |
| 2026-04-25 10:54 | 52.26226 | 21.11975 | 6394 ft | 237 kts | 332° |
| 2026-04-25 10:54 | 52.28224 | 21.10588 | 6104 ft | 232 kts | 331° |
| 2026-04-25 10:54 | 52.29693 | 21.09569 | 5892 ft | 228 kts | 331° |
| 2026-04-25 10:55 | 52.31177 | 21.08538 | 5666 ft | 235 kts | 331° |
| 2026-04-25 10:55 | 52.32701 | 21.07478 | 5402 ft | 239 kts | 331° |
| 2026-04-25 10:55 | 52.34243 | 21.06405 | 5132 ft | 241 kts | 331° |
| 2026-04-25 10:55 | 52.35764 | 21.05346 | 4904 ft | 240 kts | 331° |
| 2026-04-25 10:56 | 52.37302 | 21.04275 | 4622 ft | 239 kts | 330° |
| 2026-04-25 10:56 | 52.38827 | 21.03212 | 4387 ft | 236 kts | 330° |
| 2026-04-25 10:56 | 52.40315 | 21.02173 | 4252 ft | 228 kts | 330° |
| 2026-04-25 10:56 | 52.41755 | 21.01169 | 4137 ft | 221 kts | 330° |
| 2026-04-25 10:57 | 52.43149 | 21.00194 | 4008 ft | 221 kts | 330° |
| 2026-04-25 10:57 | 52.44564 | 20.99203 | 3903 ft | 221 kts | 330° |
| 2026-04-25 10:57 | 52.45983 | 20.98205 | 3791 ft | 221 kts | 328° |
| 2026-04-25 10:57 | 52.47125 | 20.96695 | 3618 ft | 207 kts | 297° |
| 2026-04-25 10:58 | 52.47562 | 20.94505 | 3499 ft | 202 kts | 271° |
| 2026-04-25 10:58 | 52.47478 | 20.92198 | 3412 ft | 204 kts | 264° |
| 2026-04-25 10:58 | 52.47377 | 20.90671 | 3362 ft | 201 kts | 263° |
| 2026-04-25 10:58 | 52.47152 | 20.87704 | 3165 ft | 192 kts | 262° |
| 2026-04-25 10:59 | 52.46979 | 20.85604 | 3006 ft | 180 kts | 261° |
| 2026-04-25 10:59 | 52.46867 | 20.84265 | 2813 ft | 178 kts | 261° |
| 2026-04-25 10:59 | 52.46694 | 20.82262 | 2465 ft | 174 kts | 262° |
| 2026-04-25 10:59 | 52.46522 | 20.80331 | 2144 ft | 168 kts | 261° |
| 2026-04-25 11:00 | 52.46355 | 20.78465 | 1858 ft | 163 kts | 261° |
| 2026-04-25 11:00 | 52.46195 | 20.76719 | 1647 ft | 145 kts | 261° |
| 2026-04-25 11:00 | 52.46055 | 20.75184 | 1461 ft | 125 kts | 260° |
| 2026-04-25 11:00 | 52.45930 | 20.73829 | 1288 ft | 117 kts | 260° |
| 2026-04-25 11:01 | 52.45804 | 20.72524 | 1054 ft | 118 kts | 259° |
| 2026-04-25 11:01 | 52.45679 | 20.71179 | 860 ft | 118 kts | 259° |
| 2026-04-25 11:01 | 52.45554 | 20.69859 | 738 ft | 119 kts | 260° |
| 2026-04-25 11:01 | 52.45431 | 20.68501 | 563 ft | 121 kts | 259° |
| 2026-04-25 11:02 | 52.45313 | 20.67201 | 391 ft | 109 kts | 259° |
| 2026-04-25 11:02 | 52.45207 | 20.66094 | 341 ft | 83 kts | 262° |
| 2026-04-25 11:02 | 52.45146 | 20.65449 | 341 ft | 46 kts | 261° |
| 2026-04-25 11:02 | 52.45099 | 20.64941 | 339 ft | 41 kts | 261° |
| 2026-04-25 11:03 | 52.45060 | 20.64534 | 340 ft | 32 kts | 261° |
| 2026-04-25 11:03 | 52.45005 | 20.64390 | 346 ft | 13 kts | 188° |
| 2026-04-25 11:03 | 52.44918 | 20.64383 | 337 ft | 13 kts | 182° |
| 2026-04-25 11:03 | 52.44824 | 20.64376 | 340 ft | 14 kts | 182° |
| 2026-04-25 11:04 | 52.44734 | 20.64372 | 337 ft | 10 kts | 170° |
| 2026-04-25 11:04 | 52.44715 | 20.64451 | 340 ft | 9 kts | 83° |
| 2026-04-25 11:04 | 52.44725 | 20.64565 | 338 ft | 12 kts | 81° |
| 2026-04-25 11:04 | 52.44739 | 20.64710 | 336 ft | 14 kts | 80° |
| 2026-04-25 11:05 | 52.44756 | 20.64880 | 339 ft | 16 kts | 81° |
| 2026-04-25 11:05 | 52.44768 | 20.65018 | 338 ft | 6 kts | 95° |
| 2026-04-25 11:05 | 52.44742 | 20.65034 | 337 ft | 3 kts | 205° |
| 2026-04-25 11:05 | 52.44722 | 20.65019 | 339 ft | 2 kts | 206° |
| 2026-04-25 11:06 | 52.44722 | 20.65018 | 339 ft | 0 kts | 206° |